sensor_id;sensor_type;location;lat;lon;timestamp;temperature;humidity
70166;SHT30;57541;47.408;18.822;2023-10-13T00:00:09;13.69;99.99
70166;SHT30;57541;47.408;18.822;2023-10-13T00:00:57;13.74;99.99
70166;SHT30;57541;47.408;18.822;2023-10-13T00:01:29;13.62;99.99
70166;SHT30;57541;47.408;18.822;2023-10-13T00:02:02;13.64;99.99
70166;SHT30;57541;47.408;18.822;2023-10-13T00:02:36;13.62;99.99
70166;SHT30;57541;47.408;18.822;2023-10-13T00:03:09;13.66;99.99
70166;SHT30;57541;47.408;18.822;2023-10-13T00:03:48;13.66;99.99
70166;SHT30;57541;47.408;18.822;2023-10-13T00:04:20;13.65;99.99
70166;SHT30;57541;47.408;18.822;2023-10-13T00:04:56;13.66;99.99
70166;SHT30;57541;47.408;18.822;2023-10-13T00:05:28;13.66;99.99
70166;SHT30;57541;47.408;18.822;2023-10-13T00:06:03;13.62;99.99
70166;SHT30;57541;47.408;18.822;2023-10-13T00:06:35;13.62;99.99
70166;SHT30;57541;47.408;18.822;2023-10-13T00:07:09;13.55;99.99
70166;SHT30;57541;47.408;18.822;2023-10-13T00:07:41;13.50;99.99
70166;SHT30;57541;47.408;18.822;2023-10-13T00:08:13;13.48;99.99
70166;SHT30;57541;47.408;18.822;2023-10-13T00:08:46;13.48;99.99
70166;SHT30;57541;47.408;18.822;2023-10-13T00:09:18;13.45;99.99
70166;SHT30;57541;47.408;18.822;2023-10-13T00:09:51;13.34;99.99
70166;SHT30;57541;47.408;18.822;2023-10-13T00:10:23;13.33;99.99
70166;SHT30;57541;47.408;18.822;2023-10-13T00:10:56;13.37;99.99
70166;SHT30;57541;47.408;18.822;2023-10-13T00:11:34;13.38;99.99
70166;SHT30;57541;47.408;18.822;2023-10-13T00:12:08;13.31;99.99
70166;SHT30;57541;47.408;18.822;2023-10-13T00:12:41;13.31;99.99
70166;SHT30;57541;47.408;18.822;2023-10-13T00:13:21;13.26;99.99
70166;SHT30;57541;47.408;18.822;2023-10-13T00:13:52;13.18;99.99
70166;SHT30;57541;47.408;18.822;2023-10-13T00:14:26;13.18;99.99
70166;SHT30;57541;47.408;18.822;2023-10-13T00:15:05;13.23;99.99
70166;SHT30;57541;47.408;18.822;2023-10-13T00:15:46;13.18;99.99
70166;SHT30;57541;47.408;18.822;2023-10-13T00:16:29;13.11;99.99
70166;SHT30;57541;47.408;18.822;2023-10-13T00:17:04;13.08;99.99
70166;SHT30;57541;47.408;18.822;2023-10-13T00:17:37;13.14;99.99
70166;SHT30;57541;47.408;18.822;2023-10-13T00:18:10;13.17;99.99
70166;SHT30;57541;47.408;18.822;2023-10-13T00:18:45;13.18;99.99
70166;SHT30;57541;47.408;18.822;2023-10-13T00:19:17;13.20;99.99
70166;SHT30;57541;47.408;18.822;2023-10-13T00:19:49;13.24;99.99
70166;SHT30;57541;47.408;18.822;2023-10-13T00:20:24;13.21;99.99
70166;SHT30;57541;47.408;18.822;2023-10-13T00:21:10;13.26;99.99
70166;SHT30;57541;47.408;18.822;2023-10-13T00:21:44;13.17;99.99
70166;SHT30;57541;47.408;18.822;2023-10-13T00:22:16;13.23;99.99
70166;SHT30;57541;47.408;18.822;2023-10-13T00:22:48;13.20;99.99
70166;SHT30;57541;47.408;18.822;2023-10-13T00:23:20;13.20;99.99
70166;SHT30;57541;47.408;18.822;2023-10-13T00:23:54;13.18;99.99
70166;SHT30;57541;47.408;18.822;2023-10-13T00:24:26;13.18;99.99
70166;SHT30;57541;47.408;18.822;2023-10-13T00:25:01;13.14;99.99
70166;SHT30;57541;47.408;18.822;2023-10-13T00:25:35;13.08;99.99
70166;SHT30;57541;47.408;18.822;2023-10-13T00:26:15;13.10;99.99
70166;SHT30;57541;47.408;18.822;2023-10-13T00:26:49;13.10;99.99
70166;SHT30;57541;47.408;18.822;2023-10-13T00:27:21;13.06;99.99
70166;SHT30;57541;47.408;18.822;2023-10-13T00:28:02;13.04;99.99
70166;SHT30;57541;47.408;18.822;2023-10-13T00:28:35;13.07;99.99
70166;SHT30;57541;47.408;18.822;2023-10-13T00:29:07;13.06;99.99
70166;SHT30;57541;47.408;18.822;2023-10-13T00:29:39;13.08;99.99
70166;SHT30;57541;47.408;18.822;2023-10-13T00:30:11;13.02;99.99
70166;SHT30;57541;47.408;18.822;2023-10-13T00:31:04;13.04;99.99
70166;SHT30;57541;47.408;18.822;2023-10-13T00:31:43;13.03;99.99
70166;SHT30;57541;47.408;18.822;2023-10-13T00:32:15;13.08;99.99
70166;SHT30;57541;47.408;18.822;2023-10-13T00:32:51;13.00;99.99
70166;SHT30;57541;47.408;18.822;2023-10-13T00:33:29;13.06;99.99
70166;SHT30;57541;47.408;18.822;2023-10-13T00:34:04;13.08;99.99
70166;SHT30;57541;47.408;18.822;2023-10-13T00:34:56;13.02;99.99
70166;SHT30;57541;47.408;18.822;2023-10-13T00:35:29;13.02;99.99
70166;SHT30;57541;47.408;18.822;2023-10-13T00:36:07;13.06;99.99
70166;SHT30;57541;47.408;18.822;2023-10-13T00:36:41;13.07;99.99
70166;SHT30;57541;47.408;18.822;2023-10-13T00:37:38;13.08;99.99
70166;SHT30;57541;47.408;18.822;2023-10-13T00:38:16;13.08;99.99
70166;SHT30;57541;47.408;18.822;2023-10-13T00:38:51;13.07;99.99
70166;SHT30;57541;47.408;18.822;2023-10-13T00:39:24;13.03;99.99
70166;SHT30;57541;47.408;18.822;2023-10-13T00:39:55;13.07;99.99
70166;SHT30;57541;47.408;18.822;2023-10-13T00:40:28;13.10;99.99
70166;SHT30;57541;47.408;18.822;2023-10-13T00:41:02;13.07;99.99
70166;SHT30;57541;47.408;18.822;2023-10-13T00:41:46;13.07;99.99
70166;SHT30;57541;47.408;18.822;2023-10-13T00:42:28;13.08;99.99
70166;SHT30;57541;47.408;18.822;2023-10-13T00:43:22;13.07;99.99
70166;SHT30;57541;47.408;18.822;2023-10-13T00:43:54;13.10;99.99
70166;SHT30;57541;47.408;18.822;2023-10-13T00:44:38;13.13;99.99
70166;SHT30;57541;47.408;18.822;2023-10-13T00:45:14;13.13;99.99
70166;SHT30;57541;47.408;18.822;2023-10-13T00:45:55;13.10;99.99
70166;SHT30;57541;47.408;18.822;2023-10-13T00:46:39;13.11;99.99
70166;SHT30;57541;47.408;18.822;2023-10-13T00:47:16;13.14;99.99
70166;SHT30;57541;47.408;18.822;2023-10-13T00:48:08;13.21;99.99
70166;SHT30;57541;47.408;18.822;2023-10-13T00:48:46;13.21;99.99
70166;SHT30;57541;47.408;18.822;2023-10-13T00:49:25;13.21;99.99
70166;SHT30;57541;47.408;18.822;2023-10-13T00:49:57;13.28;99.99
70166;SHT30;57541;47.408;18.822;2023-10-13T00:50:30;13.27;99.99
70166;SHT30;57541;47.408;18.822;2023-10-13T00:51:04;13.28;99.99
70166;SHT30;57541;47.408;18.822;2023-10-13T00:51:39;13.27;99.99
70166;SHT30;57541;47.408;18.822;2023-10-13T00:52:12;13.26;99.99
70166;SHT30;57541;47.408;18.822;2023-10-13T00:52:47;13.27;99.99
70166;SHT30;57541;47.408;18.822;2023-10-13T00:53:24;13.28;99.99
70166;SHT30;57541;47.408;18.822;2023-10-13T00:53:57;13.31;99.99
70166;SHT30;57541;47.408;18.822;2023-10-13T00:54:29;13.30;99.99
70166;SHT30;57541;47.408;18.822;2023-10-13T00:55:00;13.30;99.99
70166;SHT30;57541;47.408;18.822;2023-10-13T00:55:33;13.28;99.99
70166;SHT30;57541;47.408;18.822;2023-10-13T00:56:08;13.33;99.99
70166;SHT30;57541;47.408;18.822;2023-10-13T00:57:01;13.35;99.99
70166;SHT30;57541;47.408;18.822;2023-10-13T00:57:40;13.35;99.99
70166;SHT30;57541;47.408;18.822;2023-10-13T00:58:12;13.38;99.99
70166;SHT30;57541;47.408;18.822;2023-10-13T00:58:46;13.41;99.99
70166;SHT30;57541;47.408;18.822;2023-10-13T00:59:18;13.44;99.99
70166;SHT30;57541;47.408;18.822;2023-10-13T00:59:56;13.47;99.99
70166;SHT30;57541;47.408;18.822;2023-10-13T01:00:43;13.38;99.99
70166;SHT30;57541;47.408;18.822;2023-10-13T01:01:19;13.41;99.99
70166;SHT30;57541;47.408;18.822;2023-10-13T01:01:54;13.44;99.99
70166;SHT30;57541;47.408;18.822;2023-10-13T01:02:27;13.45;99.99
70166;SHT30;57541;47.408;18.822;2023-10-13T01:03:08;13.47;99.99
70166;SHT30;57541;47.408;18.822;2023-10-13T01:03:40;13.48;99.99
70166;SHT30;57541;47.408;18.822;2023-10-13T01:04:11;13.48;99.99
70166;SHT30;57541;47.408;18.822;2023-10-13T01:04:44;13.45;99.99
70166;SHT30;57541;47.408;18.822;2023-10-13T01:05:18;13.44;99.99
70166;SHT30;57541;47.408;18.822;2023-10-13T01:05:53;13.41;99.99
70166;SHT30;57541;47.408;18.822;2023-10-13T01:06:29;13.38;99.99
70166;SHT30;57541;47.408;18.822;2023-10-13T01:07:00;13.33;99.99
70166;SHT30;57541;47.408;18.822;2023-10-13T01:07:34;13.31;99.99
70166;SHT30;57541;47.408;18.822;2023-10-13T01:08:08;13.35;99.99
70166;SHT30;57541;47.408;18.822;2023-10-13T01:09:07;13.31;99.99
70166;SHT30;57541;47.408;18.822;2023-10-13T01:09:48;13.31;99.99
70166;SHT30;57541;47.408;18.822;2023-10-13T01:10:20;13.34;99.99
70166;SHT30;57541;47.408;18.822;2023-10-13T01:10:57;13.34;99.99
70166;SHT30;57541;47.408;18.822;2023-10-13T01:11:29;13.37;99.99
70166;SHT30;57541;47.408;18.822;2023-10-13T01:12:03;13.31;99.99
70166;SHT30;57541;47.408;18.822;2023-10-13T01:12:34;13.33;99.99
70166;SHT30;57541;47.408;18.822;2023-10-13T01:13:06;13.33;99.99
70166;SHT30;57541;47.408;18.822;2023-10-13T01:13:38;13.33;99.99
70166;SHT30;57541;47.408;18.822;2023-10-13T01:14:14;13.35;99.99
70166;SHT30;57541;47.408;18.822;2023-10-13T01:14:49;13.38;99.99
70166;SHT30;57541;47.408;18.822;2023-10-13T01:15:20;13.37;99.99
70166;SHT30;57541;47.408;18.822;2023-10-13T01:15:53;13.37;99.99
70166;SHT30;57541;47.408;18.822;2023-10-13T01:16:25;13.35;99.99
70166;SHT30;57541;47.408;18.822;2023-10-13T01:16:58;13.40;99.99
70166;SHT30;57541;47.408;18.822;2023-10-13T01:17:33;13.41;99.99
70166;SHT30;57541;47.408;18.822;2023-10-13T01:18:06;13.43;99.99
70166;SHT30;57541;47.408;18.822;2023-10-13T01:18:45;13.44;99.99
70166;SHT30;57541;47.408;18.822;2023-10-13T01:19:20;13.47;99.99
70166;SHT30;57541;47.408;18.822;2023-10-13T01:19:57;13.43;99.99
70166;SHT30;57541;47.408;18.822;2023-10-13T01:20:30;13.44;99.99
70166;SHT30;57541;47.408;18.822;2023-10-13T01:21:04;13.44;99.99
70166;SHT30;57541;47.408;18.822;2023-10-13T01:21:36;13.41;99.99
70166;SHT30;57541;47.408;18.822;2023-10-13T01:22:09;13.48;99.99
70166;SHT30;57541;47.408;18.822;2023-10-13T01:22:41;13.45;99.99
70166;SHT30;57541;47.408;18.822;2023-10-13T01:23:13;13.45;99.99
70166;SHT30;57541;47.408;18.822;2023-10-13T01:23:51;13.47;99.99
70166;SHT30;57541;47.408;18.822;2023-10-13T01:24:23;13.45;99.99
70166;SHT30;57541;47.408;18.822;2023-10-13T01:24:57;13.44;99.99
70166;SHT30;57541;47.408;18.822;2023-10-13T01:25:38;13.50;99.99
70166;SHT30;57541;47.408;18.822;2023-10-13T01:26:12;13.50;99.99
70166;SHT30;57541;47.408;18.822;2023-10-13T01:26:48;13.45;99.99
70166;SHT30;57541;47.408;18.822;2023-10-13T01:27:22;13.44;99.99
70166;SHT30;57541;47.408;18.822;2023-10-13T01:27:56;13.45;99.99
70166;SHT30;57541;47.408;18.822;2023-10-13T01:28:28;13.47;99.99
70166;SHT30;57541;47.408;18.822;2023-10-13T01:29:00;13.40;99.99
70166;SHT30;57541;47.408;18.822;2023-10-13T01:29:32;13.37;99.99
70166;SHT30;57541;47.408;18.822;2023-10-13T01:30:04;13.43;99.99
70166;SHT30;57541;47.408;18.822;2023-10-13T01:30:54;13.37;99.99
70166;SHT30;57541;47.408;18.822;2023-10-13T01:31:26;13.37;99.99
70166;SHT30;57541;47.408;18.822;2023-10-13T01:32:01;13.38;99.99
70166;SHT30;57541;47.408;18.822;2023-10-13T01:32:33;13.45;99.99
70166;SHT30;57541;47.408;18.822;2023-10-13T01:33:06;13.44;99.99
70166;SHT30;57541;47.408;18.822;2023-10-13T01:33:40;13.45;99.99
70166;SHT30;57541;47.408;18.822;2023-10-13T01:34:13;13.47;99.99
70166;SHT30;57541;47.408;18.822;2023-10-13T01:34:51;13.47;99.99
70166;SHT30;57541;47.408;18.822;2023-10-13T01:35:27;13.48;99.99
70166;SHT30;57541;47.408;18.822;2023-10-13T01:36:07;13.45;99.99
70166;SHT30;57541;47.408;18.822;2023-10-13T01:36:39;13.47;99.99
70166;SHT30;57541;47.408;18.822;2023-10-13T01:37:12;13.45;99.99
70166;SHT30;57541;47.408;18.822;2023-10-13T01:37:45;13.45;99.99
70166;SHT30;57541;47.408;18.822;2023-10-13T01:38:16;13.47;99.99
70166;SHT30;57541;47.408;18.822;2023-10-13T01:38:48;13.45;99.99
70166;SHT30;57541;47.408;18.822;2023-10-13T01:39:23;13.44;99.99
70166;SHT30;57541;47.408;18.822;2023-10-13T01:39:58;13.43;99.99
70166;SHT30;57541;47.408;18.822;2023-10-13T01:40:29;13.51;99.99
70166;SHT30;57541;47.408;18.822;2023-10-13T01:41:05;13.50;99.99
70166;SHT30;57541;47.408;18.822;2023-10-13T01:41:37;13.50;99.99
70166;SHT30;57541;47.408;18.822;2023-10-13T01:42:10;13.50;99.99
70166;SHT30;57541;47.408;18.822;2023-10-13T01:42:46;13.44;99.99
70166;SHT30;57541;47.408;18.822;2023-10-13T01:43:18;13.44;99.99
70166;SHT30;57541;47.408;18.822;2023-10-13T01:43:49;13.40;99.99
70166;SHT30;57541;47.408;18.822;2023-10-13T01:44:22;13.37;99.99
70166;SHT30;57541;47.408;18.822;2023-10-13T01:44:54;13.35;99.99
70166;SHT30;57541;47.408;18.822;2023-10-13T01:45:37;13.40;99.99
70166;SHT30;57541;47.408;18.822;2023-10-13T01:46:17;13.38;99.99
70166;SHT30;57541;47.408;18.822;2023-10-13T01:46:53;13.40;99.99
70166;SHT30;57541;47.408;18.822;2023-10-13T01:47:25;13.41;99.99
70166;SHT30;57541;47.408;18.822;2023-10-13T01:47:59;13.43;99.99
70166;SHT30;57541;47.408;18.822;2023-10-13T01:48:33;13.35;99.99
70166;SHT30;57541;47.408;18.822;2023-10-13T01:49:10;13.41;99.99
70166;SHT30;57541;47.408;18.822;2023-10-13T01:49:43;13.44;99.99
70166;SHT30;57541;47.408;18.822;2023-10-13T01:50:19;13.45;99.99
70166;SHT30;57541;47.408;18.822;2023-10-13T01:50:59;13.37;99.99
70166;SHT30;57541;47.408;18.822;2023-10-13T01:51:36;13.43;99.99
70166;SHT30;57541;47.408;18.822;2023-10-13T01:52:11;13.44;99.99
70166;SHT30;57541;47.408;18.822;2023-10-13T01:52:47;13.45;99.99
70166;SHT30;57541;47.408;18.822;2023-10-13T01:53:18;13.43;99.99
70166;SHT30;57541;47.408;18.822;2023-10-13T01:53:51;13.44;99.99
70166;SHT30;57541;47.408;18.822;2023-10-13T01:54:28;13.47;99.99
70166;SHT30;57541;47.408;18.822;2023-10-13T01:54:59;13.50;99.99
70166;SHT30;57541;47.408;18.822;2023-10-13T01:55:32;13.50;99.99
70166;SHT30;57541;47.408;18.822;2023-10-13T01:56:15;13.47;99.99
70166;SHT30;57541;47.408;18.822;2023-10-13T01:56:46;13.51;99.99
70166;SHT30;57541;47.408;18.822;2023-10-13T01:57:20;13.53;99.99
70166;SHT30;57541;47.408;18.822;2023-10-13T01:57:55;13.44;99.99
70166;SHT30;57541;47.408;18.822;2023-10-13T01:58:27;13.48;99.99
70166;SHT30;57541;47.408;18.822;2023-10-13T01:59:00;13.50;99.99
70166;SHT30;57541;47.408;18.822;2023-10-13T01:59:32;13.53;99.99
70166;SHT30;57541;47.408;18.822;2023-10-13T02:00:04;13.53;99.99
70166;SHT30;57541;47.408;18.822;2023-10-13T02:00:50;13.54;99.99
70166;SHT30;57541;47.408;18.822;2023-10-13T02:01:22;13.54;99.99
70166;SHT30;57541;47.408;18.822;2023-10-13T02:01:59;13.53;99.99
70166;SHT30;57541;47.408;18.822;2023-10-13T02:02:33;13.54;99.99
70166;SHT30;57541;47.408;18.822;2023-10-13T02:03:05;13.57;99.99
70166;SHT30;57541;47.408;18.822;2023-10-13T02:03:39;13.55;99.99
70166;SHT30;57541;47.408;18.822;2023-10-13T02:04:18;13.58;99.99
70166;SHT30;57541;47.408;18.822;2023-10-13T02:04:53;13.58;99.99
70166;SHT30;57541;47.408;18.822;2023-10-13T02:05:32;13.59;99.99
70166;SHT30;57541;47.408;18.822;2023-10-13T02:06:08;13.55;99.99
70166;SHT30;57541;47.408;18.822;2023-10-13T02:06:42;13.58;99.99
70166;SHT30;57541;47.408;18.822;2023-10-13T02:07:15;13.59;99.99
70166;SHT30;57541;47.408;18.822;2023-10-13T02:07:47;13.59;99.99
70166;SHT30;57541;47.408;18.822;2023-10-13T02:08:20;13.59;99.99
70166;SHT30;57541;47.408;18.822;2023-10-13T02:08:56;13.58;99.99
70166;SHT30;57541;47.408;18.822;2023-10-13T02:09:29;13.55;99.99
70166;SHT30;57541;47.408;18.822;2023-10-13T02:10:01;13.57;99.99
70166;SHT30;57541;47.408;18.822;2023-10-13T02:10:45;13.58;99.99
70166;SHT30;57541;47.408;18.822;2023-10-13T02:11:16;13.54;99.99
70166;SHT30;57541;47.408;18.822;2023-10-13T02:11:50;13.50;99.99
70166;SHT30;57541;47.408;18.822;2023-10-13T02:12:26;13.50;99.99
70166;SHT30;57541;47.408;18.822;2023-10-13T02:13:00;13.44;99.99
70166;SHT30;57541;47.408;18.822;2023-10-13T02:13:34;13.41;99.99
70166;SHT30;57541;47.408;18.822;2023-10-13T02:14:13;13.43;99.99
70166;SHT30;57541;47.408;18.822;2023-10-13T02:14:48;13.44;99.99
70166;SHT30;57541;47.408;18.822;2023-10-13T02:15:20;13.44;99.99
70166;SHT30;57541;47.408;18.822;2023-10-13T02:15:54;13.37;99.99
70166;SHT30;57541;47.408;18.822;2023-10-13T02:16:33;13.38;99.99
70166;SHT30;57541;47.408;18.822;2023-10-13T02:17:05;13.38;99.99
70166;SHT30;57541;47.408;18.822;2023-10-13T02:17:48;13.38;99.99
70166;SHT30;57541;47.408;18.822;2023-10-13T02:18:24;13.43;99.99
70166;SHT30;57541;47.408;18.822;2023-10-13T02:18:59;13.43;99.99
70166;SHT30;57541;47.408;18.822;2023-10-13T02:19:37;13.47;99.99
70166;SHT30;57541;47.408;18.822;2023-10-13T02:20:11;13.51;99.99
70166;SHT30;57541;47.408;18.822;2023-10-13T02:20:47;13.51;99.99
70166;SHT30;57541;47.408;18.822;2023-10-13T02:21:25;13.54;99.99
70166;SHT30;57541;47.408;18.822;2023-10-13T02:22:03;13.54;99.99
70166;SHT30;57541;47.408;18.822;2023-10-13T02:22:35;13.61;99.99
70166;SHT30;57541;47.408;18.822;2023-10-13T02:23:09;13.58;99.99
70166;SHT30;57541;47.408;18.822;2023-10-13T02:23:44;13.61;99.99
70166;SHT30;57541;47.408;18.822;2023-10-13T02:24:31;13.64;99.99
70166;SHT30;57541;47.408;18.822;2023-10-13T02:25:04;13.66;99.99
70166;SHT30;57541;47.408;18.822;2023-10-13T02:25:37;13.61;99.99
70166;SHT30;57541;47.408;18.822;2023-10-13T02:26:17;13.64;99.99
70166;SHT30;57541;47.408;18.822;2023-10-13T02:27:10;13.66;99.99
70166;SHT30;57541;47.408;18.822;2023-10-13T02:27:45;13.65;99.99
70166;SHT30;57541;47.408;18.822;2023-10-13T02:28:29;13.69;99.99
70166;SHT30;57541;47.408;18.822;2023-10-13T02:29:05;13.62;99.99
70166;SHT30;57541;47.408;18.822;2023-10-13T02:29:40;13.61;99.99
70166;SHT30;57541;47.408;18.822;2023-10-13T02:30:12;13.62;99.99
70166;SHT30;57541;47.408;18.822;2023-10-13T02:30:45;13.65;99.99
70166;SHT30;57541;47.408;18.822;2023-10-13T02:31:19;13.64;99.99
70166;SHT30;57541;47.408;18.822;2023-10-13T02:31:56;13.68;99.99
70166;SHT30;57541;47.408;18.822;2023-10-13T02:32:29;13.72;99.99
70166;SHT30;57541;47.408;18.822;2023-10-13T02:33:02;13.71;99.99
70166;SHT30;57541;47.408;18.822;2023-10-13T02:33:37;13.75;99.99
70166;SHT30;57541;47.408;18.822;2023-10-13T02:34:16;13.74;99.99
70166;SHT30;57541;47.408;18.822;2023-10-13T02:34:50;13.71;99.99
70166;SHT30;57541;47.408;18.822;2023-10-13T02:35:21;13.72;99.99
70166;SHT30;57541;47.408;18.822;2023-10-13T02:36:03;13.75;99.99
70166;SHT30;57541;47.408;18.822;2023-10-13T02:36:38;13.76;99.99
70166;SHT30;57541;47.408;18.822;2023-10-13T02:37:39;13.72;99.99
70166;SHT30;57541;47.408;18.822;2023-10-13T02:38:14;13.72;99.99
70166;SHT30;57541;47.408;18.822;2023-10-13T02:38:49;13.75;99.99
70166;SHT30;57541;47.408;18.822;2023-10-13T02:39:22;13.74;99.99
70166;SHT30;57541;47.408;18.822;2023-10-13T02:39:58;13.78;99.99
70166;SHT30;57541;47.408;18.822;2023-10-13T02:40:35;13.76;99.99
70166;SHT30;57541;47.408;18.822;2023-10-13T02:41:13;13.75;99.99
70166;SHT30;57541;47.408;18.822;2023-10-13T02:41:50;13.76;99.99
70166;SHT30;57541;47.408;18.822;2023-10-13T02:42:22;13.78;99.99
70166;SHT30;57541;47.408;18.822;2023-10-13T02:42:56;13.78;99.99
70166;SHT30;57541;47.408;18.822;2023-10-13T02:43:28;13.76;99.99
70166;SHT30;57541;47.408;18.822;2023-10-13T02:44:06;13.78;99.99
70166;SHT30;57541;47.408;18.822;2023-10-13T02:44:38;13.81;99.99
70166;SHT30;57541;47.408;18.822;2023-10-13T02:45:12;13.82;99.99
70166;SHT30;57541;47.408;18.822;2023-10-13T02:45:51;13.82;99.99
70166;SHT30;57541;47.408;18.822;2023-10-13T02:46:28;13.82;99.99
70166;SHT30;57541;47.408;18.822;2023-10-13T02:47:02;13.87;99.99
70166;SHT30;57541;47.408;18.822;2023-10-13T02:47:37;13.89;99.99
70166;SHT30;57541;47.408;18.822;2023-10-13T02:48:09;13.93;99.99
70166;SHT30;57541;47.408;18.822;2023-10-13T02:48:43;13.96;99.99
70166;SHT30;57541;47.408;18.822;2023-10-13T02:49:17;13.99;99.99
70166;SHT30;57541;47.408;18.822;2023-10-13T02:49:51;13.98;99.99
70166;SHT30;57541;47.408;18.822;2023-10-13T02:50:23;13.99;99.99
70166;SHT30;57541;47.408;18.822;2023-10-13T02:50:59;14.02;99.99
70166;SHT30;57541;47.408;18.822;2023-10-13T02:51:33;14.01;99.99
70166;SHT30;57541;47.408;18.822;2023-10-13T02:52:09;13.95;99.99
70166;SHT30;57541;47.408;18.822;2023-10-13T02:52:40;13.95;99.99
70166;SHT30;57541;47.408;18.822;2023-10-13T02:53:13;13.99;99.99
70166;SHT30;57541;47.408;18.822;2023-10-13T02:53:46;13.96;99.99
70166;SHT30;57541;47.408;18.822;2023-10-13T02:54:19;13.90;99.99
70166;SHT30;57541;47.408;18.822;2023-10-13T02:54:51;13.89;99.99
70166;SHT30;57541;47.408;18.822;2023-10-13T02:55:23;13.87;99.99
70166;SHT30;57541;47.408;18.822;2023-10-13T02:55:57;13.90;99.99
70166;SHT30;57541;47.408;18.822;2023-10-13T02:56:38;13.93;99.99
70166;SHT30;57541;47.408;18.822;2023-10-13T02:57:19;13.98;99.99
70166;SHT30;57541;47.408;18.822;2023-10-13T02:57:51;13.96;99.99
70166;SHT30;57541;47.408;18.822;2023-10-13T02:58:26;13.98;99.99
70166;SHT30;57541;47.408;18.822;2023-10-13T02:59:09;14.02;99.99
70166;SHT30;57541;47.408;18.822;2023-10-13T02:59:44;14.03;99.99
70166;SHT30;57541;47.408;18.822;2023-10-13T03:00:19;13.99;99.99
70166;SHT30;57541;47.408;18.822;2023-10-13T03:00:54;14.01;99.99
70166;SHT30;57541;47.408;18.822;2023-10-13T03:01:26;14.05;99.99
70166;SHT30;57541;47.408;18.822;2023-10-13T03:02:01;14.09;99.99
70166;SHT30;57541;47.408;18.822;2023-10-13T03:02:38;14.06;99.99
70166;SHT30;57541;47.408;18.822;2023-10-13T03:03:18;14.09;99.99
70166;SHT30;57541;47.408;18.822;2023-10-13T03:03:52;14.08;99.99
70166;SHT30;57541;47.408;18.822;2023-10-13T03:04:26;14.12;99.99
70166;SHT30;57541;47.408;18.822;2023-10-13T03:04:58;14.13;99.99
70166;SHT30;57541;47.408;18.822;2023-10-13T03:05:40;14.16;99.99
70166;SHT30;57541;47.408;18.822;2023-10-13T03:06:14;14.20;99.99
70166;SHT30;57541;47.408;18.822;2023-10-13T03:06:47;14.15;99.99
70166;SHT30;57541;47.408;18.822;2023-10-13T03:07:19;14.17;99.99
70166;SHT30;57541;47.408;18.822;2023-10-13T03:07:55;14.17;99.99
70166;SHT30;57541;47.408;18.822;2023-10-13T03:08:28;14.22;99.99
70166;SHT30;57541;47.408;18.822;2023-10-13T03:09:02;14.20;99.99
70166;SHT30;57541;47.408;18.822;2023-10-13T03:09:50;14.20;99.99
70166;SHT30;57541;47.408;18.822;2023-10-13T03:10:23;14.22;99.99
70166;SHT30;57541;47.408;18.822;2023-10-13T03:11:00;14.23;99.99
70166;SHT30;57541;47.408;18.822;2023-10-13T03:11:36;14.19;99.99
70166;SHT30;57541;47.408;18.822;2023-10-13T03:12:11;14.20;99.99
70166;SHT30;57541;47.408;18.822;2023-10-13T03:12:43;14.23;99.99
70166;SHT30;57541;47.408;18.822;2023-10-13T03:13:20;14.20;99.99
70166;SHT30;57541;47.408;18.822;2023-10-13T03:13:51;14.23;99.99
70166;SHT30;57541;47.408;18.822;2023-10-13T03:14:24;14.27;99.99
70166;SHT30;57541;47.408;18.822;2023-10-13T03:14:58;14.27;99.99
70166;SHT30;57541;47.408;18.822;2023-10-13T03:15:44;14.27;99.99
70166;SHT30;57541;47.408;18.822;2023-10-13T03:16:19;14.27;99.99
70166;SHT30;57541;47.408;18.822;2023-10-13T03:17:23;14.30;99.99
70166;SHT30;57541;47.408;18.822;2023-10-13T03:18:07;14.30;99.99
70166;SHT30;57541;47.408;18.822;2023-10-13T03:18:38;14.26;99.99
70166;SHT30;57541;47.408;18.822;2023-10-13T03:19:10;14.27;99.99
70166;SHT30;57541;47.408;18.822;2023-10-13T03:19:45;14.32;99.99
70166;SHT30;57541;47.408;18.822;2023-10-13T03:20:23;14.38;99.99
70166;SHT30;57541;47.408;18.822;2023-10-13T03:21:02;14.43;99.99
70166;SHT30;57541;47.408;18.822;2023-10-13T03:21:34;14.41;99.99
70166;SHT30;57541;47.408;18.822;2023-10-13T03:22:10;14.45;99.99
70166;SHT30;57541;47.408;18.822;2023-10-13T03:22:47;14.44;99.99
70166;SHT30;57541;47.408;18.822;2023-10-13T03:23:23;14.44;99.99
70166;SHT30;57541;47.408;18.822;2023-10-13T03:23:59;14.45;99.99
70166;SHT30;57541;47.408;18.822;2023-10-13T03:24:36;14.47;99.99
70166;SHT30;57541;47.408;18.822;2023-10-13T03:25:08;14.48;99.99
70166;SHT30;57541;47.408;18.822;2023-10-13T03:25:44;14.50;99.99
70166;SHT30;57541;47.408;18.822;2023-10-13T03:26:22;14.51;99.99
70166;SHT30;57541;47.408;18.822;2023-10-13T03:26:53;14.50;99.99
70166;SHT30;57541;47.408;18.822;2023-10-13T03:27:26;14.53;99.99
70166;SHT30;57541;47.408;18.822;2023-10-13T03:28:10;14.51;99.99
70166;SHT30;57541;47.408;18.822;2023-10-13T03:28:55;14.56;99.99
70166;SHT30;57541;47.408;18.822;2023-10-13T03:29:28;14.59;99.99
70166;SHT30;57541;47.408;18.822;2023-10-13T03:30:02;14.57;99.99
70166;SHT30;57541;47.408;18.822;2023-10-13T03:30:41;14.59;99.99
70166;SHT30;57541;47.408;18.822;2023-10-13T03:31:15;14.61;99.99
70166;SHT30;57541;47.408;18.822;2023-10-13T03:31:49;14.61;99.99
70166;SHT30;57541;47.408;18.822;2023-10-13T03:32:38;14.59;99.99
70166;SHT30;57541;47.408;18.822;2023-10-13T03:33:15;14.57;99.99
70166;SHT30;57541;47.408;18.822;2023-10-13T03:33:57;14.61;99.99
70166;SHT30;57541;47.408;18.822;2023-10-13T03:34:31;14.63;99.99
70166;SHT30;57541;47.408;18.822;2023-10-13T03:35:03;14.64;99.99
70166;SHT30;57541;47.408;18.822;2023-10-13T03:35:44;14.65;99.99
70166;SHT30;57541;47.408;18.822;2023-10-13T03:36:26;14.64;99.99
70166;SHT30;57541;47.408;18.822;2023-10-13T03:37:17;14.67;99.99
70166;SHT30;57541;47.408;18.822;2023-10-13T03:37:54;14.61;99.99
70166;SHT30;57541;47.408;18.822;2023-10-13T03:38:26;14.64;99.99
70166;SHT30;57541;47.408;18.822;2023-10-13T03:38:59;14.64;99.99
70166;SHT30;57541;47.408;18.822;2023-10-13T03:39:30;14.59;99.99
70166;SHT30;57541;47.408;18.822;2023-10-13T03:40:04;14.61;99.99
70166;SHT30;57541;47.408;18.822;2023-10-13T03:40:50;14.64;99.99
70166;SHT30;57541;47.408;18.822;2023-10-13T03:41:28;14.63;99.99
70166;SHT30;57541;47.408;18.822;2023-10-13T03:42:02;14.63;99.99